createdAt,value
2023-05-10T00:02:55.305Z,98886.56
2023-05-10T00:05:59.368Z,98878.06
2023-05-10T00:09:04.632Z,98881.19
2023-05-10T00:12:08.609Z,98870.84
2023-05-10T00:15:12.621Z,98873.31
2023-05-10T00:18:16.540Z,98874.75
2023-05-10T00:21:20.326Z,98872.03
2023-05-10T00:24:26.207Z,98869.94
2023-05-10T00:27:29.781Z,98865.59
2023-05-10T00:30:33.469Z,98871.97
2023-05-10T00:33:38.912Z,98874.03
2023-05-10T00:36:42.799Z,98872.78
2023-05-10T00:39:47.731Z,98866.13
2023-05-10T00:42:51.552Z,98860.13
2023-05-10T00:45:55.825Z,98862.75
2023-05-10T00:49:00.130Z,98863.19
2023-05-10T00:52:04.137Z,98859.44
2023-05-10T00:55:13.694Z,98854.03
2023-05-10T00:58:18.417Z,98862.69
2023-05-10T01:01:22.278Z,98857.06
2023-05-10T01:04:26.663Z,98859.34
2023-05-10T01:07:30.705Z,98856.78
2023-05-10T01:10:35.541Z,98851.22
2023-05-10T01:13:43.764Z,98852.22
2023-05-10T01:16:50.964Z,98849.94
2023-05-10T01:19:54.998Z,98855.06
2023-05-10T01:23:33.085Z,98855.84
2023-05-10T01:27:27.449Z,98846.28
2023-05-10T01:31:04.698Z,98840.44
2023-05-10T01:34:18.702Z,98846.97
2023-05-10T01:37:31.348Z,98851.44
2023-05-10T01:40:42.809Z,98848.53
2023-05-10T01:44:01.672Z,98853.63
2023-05-10T01:47:13.584Z,98849.91
2023-05-10T01:50:32.715Z,98841.78
2023-05-10T01:53:41.186Z,98842.56
2023-05-10T01:56:49.902Z,98838.59
2023-05-10T01:59:55.487Z,98835.47
2023-05-10T02:03:02.373Z,98834.19
2023-05-10T02:06:09.950Z,98829.44
2023-05-10T02:09:16.400Z,98837.84
2023-05-10T02:12:22.265Z,98827.50
2023-05-10T02:15:29.532Z,98815.72
2023-05-10T02:18:36.923Z,98823.50
2023-05-10T02:21:43.550Z,98818.69
2023-05-10T02:24:50.679Z,98823.44
2023-05-10T02:27:58.544Z,98816.78
2023-05-10T02:31:03.198Z,98819.19
2023-05-10T02:34:10.605Z,98818.94
2023-05-10T02:37:19.395Z,98823.19
2023-05-10T02:40:28.567Z,98815.69
2023-05-10T02:43:37.309Z,98815.47
2023-05-10T02:46:40.970Z,98814.16
2023-05-10T02:49:45.675Z,98812.03
2023-05-10T02:52:56.334Z,98807.72
2023-05-10T02:56:08.166Z,98808.94
2023-05-10T02:59:12.136Z,98810.13
2023-05-10T03:02:17.033Z,98811.53
2023-05-10T03:05:21.249Z,98812.53
2023-05-10T03:08:27.273Z,98810.69
2023-05-10T03:11:49.621Z,98816.22
2023-05-10T03:15:05.033Z,98807.38
2023-05-10T03:18:15.547Z,98808.19
2023-05-10T03:21:22.342Z,98813.38
2023-05-10T03:24:31.770Z,98810.03
2023-05-10T03:27:41.280Z,98807.38
2023-05-10T03:30:46.408Z,98803.69
2023-05-10T03:33:51.310Z,98805.34
2023-05-10T03:37:00.246Z,98806.63
2023-05-10T03:40:12.570Z,98811.63
2023-05-10T03:43:18.860Z,98808.53
2023-05-10T03:46:22.732Z,98803.47
2023-05-10T03:49:26.552Z,98807.44
2023-05-10T03:52:30.601Z,98808.06
2023-05-10T03:55:37.386Z,98804.16
2023-05-10T03:58:41.205Z,98804.44
2023-05-10T04:01:44.908Z,98802.88
2023-05-10T04:04:49.206Z,98796.78
2023-05-10T04:07:52.644Z,98797.03
2023-05-10T04:11:07.612Z,98799.41
2023-05-10T04:14:11.233Z,98790.78
2023-05-10T04:17:14.920Z,98803.41
2023-05-10T04:20:18.982Z,98801.63
2023-05-10T04:23:22.788Z,98808.25
2023-05-10T04:26:27.936Z,98800.91
2023-05-10T04:29:32.217Z,98809.00
2023-05-10T04:32:35.830Z,98796.50
2023-05-10T04:35:41.007Z,98799.84
2023-05-10T04:38:44.792Z,98800.94
2023-05-10T04:41:49.820Z,98806.13
2023-05-10T04:44:53.512Z,98799.78
2023-05-10T04:47:57.365Z,98795.31
2023-05-10T04:51:00.924Z,98792.47
2023-05-10T04:54:06.819Z,98792.13
2023-05-10T04:57:12.089Z,98791.97
2023-05-10T05:00:17.229Z,98792.81
2023-05-10T05:03:20.984Z,98797.81
2023-05-10T05:06:25.858Z,98788.78
2023-05-10T05:09:29.337Z,98792.13
2023-05-10T05:12:34.488Z,98793.78
2023-05-10T05:15:38.189Z,98790.91
2023-05-10T05:18:41.811Z,98785.59
2023-05-10T05:21:45.522Z,98802.97
2023-05-10T05:24:49.271Z,98792.66
2023-05-10T05:27:54.136Z,98797.84
2023-05-10T05:30:57.906Z,98795.59
2023-05-10T05:34:01.219Z,98791.06
2023-05-10T05:37:04.933Z,98791.50
2023-05-10T05:40:09.954Z,98789.25
2023-05-10T05:43:14.968Z,98789.03
2023-05-10T05:46:18.393Z,98786.56
2023-05-10T05:49:22.421Z,98787.41
2023-05-10T05:52:26.051Z,98788.00
2023-05-10T05:55:30.563Z,98792.75
2023-05-10T05:58:35.552Z,98787.34
2023-05-10T06:01:39.016Z,98790.44
2023-05-10T06:04:44.711Z,98794.97
2023-05-10T06:07:48.495Z,98792.88
2023-05-10T06:10:52.112Z,98795.56
2023-05-10T06:13:57.267Z,98802.34
2023-05-10T06:17:01.140Z,98799.22
2023-05-10T06:20:06.202Z,98795.03
2023-05-10T06:23:09.869Z,98803.88
2023-05-10T06:26:14.734Z,98797.19
2023-05-10T06:29:19.826Z,98806.47
2023-05-10T06:32:23.418Z,98812.59
2023-05-10T06:35:27.195Z,98807.19
2023-05-10T06:38:31.094Z,98796.34
2023-05-10T06:41:34.765Z,98794.09
2023-05-10T06:44:39.864Z,98791.59
2023-05-10T06:47:43.916Z,98795.88
2023-05-10T06:50:47.700Z,98791.03
2023-05-10T06:53:51.297Z,98794.72
2023-05-10T06:56:54.928Z,98798.44
2023-05-10T07:00:00.374Z,98796.88
2023-05-10T07:03:03.761Z,98786.63
2023-05-10T07:06:13.313Z,98787.34
2023-05-10T07:09:22.155Z,98781.66
2023-05-10T07:12:26.019Z,98780.72
2023-05-10T07:15:30.925Z,98787.25
2023-05-10T07:18:35.003Z,98787.97
2023-05-10T07:21:38.892Z,98784.53
2023-05-10T07:24:42.806Z,98784.03
2023-05-10T07:27:46.162Z,98780.56
2023-05-10T07:30:51.226Z,98780.84
2023-05-10T07:33:54.833Z,98778.41
2023-05-10T07:37:01.531Z,98781.41
2023-05-10T07:40:05.570Z,98783.72
2023-05-10T07:43:09.224Z,98777.06
2023-05-10T07:46:14.061Z,98778.50
2023-05-10T07:49:18.086Z,98767.38
2023-05-10T07:52:22.636Z,98777.16
2023-05-10T07:55:27.161Z,98770.94
2023-05-10T07:58:31.111Z,98769.41
2023-05-10T08:01:37.047Z,98767.41
2023-05-10T08:04:40.426Z,98761.75
2023-05-10T08:07:44.136Z,98760.09
2023-05-10T08:10:47.625Z,98759.63
2023-05-10T08:13:53.769Z,98759.53
2023-05-10T08:16:58.616Z,98767.63
2023-05-10T08:20:02.430Z,98767.00
2023-05-10T08:23:06.052Z,98765.81
2023-05-10T08:26:09.705Z,98767.06
2023-05-10T08:29:13.078Z,98762.44
2023-05-10T08:32:18.326Z,98768.88
2023-05-10T08:35:21.677Z,98773.75
2023-05-10T08:38:25.813Z,98766.88
2023-05-10T08:41:30.608Z,98762.47
2023-05-10T08:44:37.268Z,98757.22
2023-05-10T08:47:43.251Z,98770.25
2023-05-10T08:50:49.732Z,98765.22
2023-05-10T08:53:53.731Z,98757.25
2023-05-10T08:56:58.123Z,98772.72
2023-05-10T09:00:03.514Z,98767.41
2023-05-10T09:03:08.569Z,98767.41
2023-05-10T09:06:15.264Z,98763.22
2023-05-10T09:09:20.089Z,98772.16
2023-05-10T09:12:23.654Z,98766.09
2023-05-10T09:15:28.060Z,98755.34
2023-05-10T09:18:33.062Z,98757.41
2023-05-10T09:21:39.162Z,98759.50
2023-05-10T09:24:46.208Z,98750.75
2023-05-10T09:27:51.262Z,98745.97
2023-05-10T09:30:56.569Z,98759.66
2023-05-10T09:34:01.744Z,98753.78
2023-05-10T09:37:05.634Z,98757.16
2023-05-10T09:40:14.705Z,98756.50
2023-05-10T09:43:18.242Z,98759.69
2023-05-10T09:46:21.870Z,98761.41
2023-05-10T09:49:26.890Z,98756.47
2023-05-10T09:52:30.585Z,98760.97
2023-05-10T09:55:43.830Z,98763.56
2023-05-10T09:58:47.631Z,98757.66
2023-05-10T10:01:54.892Z,98751.50
2023-05-10T10:05:02.963Z,98751.94
2023-05-10T10:08:07.767Z,98739.69
2023-05-10T10:11:11.468Z,98752.25
2023-05-10T10:14:15.209Z,98756.59
2023-05-10T10:17:22.021Z,98749.47
2023-05-10T10:20:28.246Z,98755.16
2023-05-10T10:23:32.038Z,98747.28
2023-05-10T10:26:39.275Z,98746.00
2023-05-10T10:30:00.744Z,98735.09
2023-05-10T10:33:32.930Z,98745.16
2023-05-10T10:36:47.074Z,98744.03
2023-05-10T10:39:51.598Z,98753.31
2023-05-10T10:42:56.150Z,98745.16
2023-05-10T10:46:15.325Z,98743.78
2023-05-10T10:49:19.042Z,98741.03
2023-05-10T10:52:30.970Z,98728.19
2023-05-10T10:55:34.719Z,98733.44
2023-05-10T10:58:40.066Z,98732.63
2023-05-10T11:01:45.491Z,98728.81
2023-05-10T11:04:49.064Z,98730.75
2023-05-10T11:07:59.820Z,98729.06
2023-05-10T11:11:09.115Z,98726.03
2023-05-10T11:14:13.130Z,98719.50
2023-05-10T11:17:27.326Z,98718.28
2023-05-10T11:20:40.958Z,98719.28
2023-05-10T11:23:57.065Z,98719.22
2023-05-10T11:27:01.840Z,98717.38
2023-05-10T11:30:08.718Z,98715.53
2023-05-10T11:33:18.012Z,98712.78
2023-05-10T11:36:24.010Z,98721.59
2023-05-10T11:39:31.912Z,98711.84
2023-05-10T11:42:35.553Z,98713.03
2023-05-10T11:45:40.055Z,98715.47
2023-05-10T11:48:45.087Z,98709.25
2023-05-10T11:51:48.722Z,98710.53
2023-05-10T11:54:56.572Z,98702.53
2023-05-10T11:58:04.691Z,98715.41
2023-05-10T12:01:11.751Z,98714.16
2023-05-10T12:04:15.893Z,98702.06
2023-05-10T12:07:20.052Z,98701.19
2023-05-10T12:10:29.305Z,98715.22
2023-05-10T12:13:32.964Z,98698.69
2023-05-10T12:16:37.814Z,98704.19
2023-05-10T12:19:41.891Z,98709.00
2023-05-10T12:22:51.943Z,98714.19
2023-05-10T12:26:05.882Z,98708.44
2023-05-10T12:29:18.527Z,98708.28
2023-05-10T12:32:21.929Z,98709.88
2023-05-10T12:35:25.872Z,98700.03
2023-05-10T12:38:31.943Z,98704.72
2023-05-10T12:41:37.161Z,98704.25
2023-05-10T12:44:41.390Z,98688.53
2023-05-10T12:47:45.164Z,98693.75
2023-05-10T12:50:49.157Z,98693.13
2023-05-10T12:53:52.851Z,98693.28
2023-05-10T12:56:57.646Z,98691.53
2023-05-10T13:00:01.467Z,98673.53
2023-05-10T13:03:06.169Z,98686.41
2023-05-10T13:06:09.911Z,98691.97
2023-05-10T13:09:13.233Z,98693.47
2023-05-10T13:12:18.387Z,98683.59
2023-05-10T13:15:21.802Z,98685.22
2023-05-10T13:18:27.343Z,98671.88
2023-05-10T13:21:31.424Z,98679.19
2023-05-10T13:24:35.137Z,98684.88
2023-05-10T13:27:39.895Z,98689.06
2023-05-10T13:30:43.648Z,98691.78
2023-05-10T13:33:47.138Z,98696.56
2023-05-10T13:36:51.212Z,98674.16
2023-05-10T13:39:54.617Z,98676.06
2023-05-10T13:42:59.820Z,98670.44
2023-05-10T13:46:03.680Z,98647.22
2023-05-10T13:49:07.568Z,98651.38
2023-05-10T13:52:11.167Z,98652.69
2023-05-10T13:56:10.332Z,98653.53
2023-05-10T13:59:34.073Z,98652.53
2023-05-10T14:02:37.829Z,98653.91
2023-05-10T14:05:41.556Z,98657.06
2023-05-10T14:08:44.931Z,98654.41
2023-05-10T14:11:48.823Z,98654.16
2023-05-10T14:14:54.297Z,98648.28
2023-05-10T14:17:57.989Z,98649.31
2023-05-10T14:21:01.459Z,98644.84
2023-05-10T14:24:05.545Z,98631.47
2023-05-10T14:27:09.005Z,98644.47
2023-05-10T14:30:15.902Z,98633.97
2023-05-10T14:33:20.186Z,98624.38
2023-05-10T14:36:23.834Z,98634.84
2023-05-10T14:39:30.465Z,98634.84
2023-05-10T14:42:34.145Z,98629.59
2023-05-10T14:45:39.165Z,98634.75
2023-05-10T14:48:42.860Z,98626.69
2023-05-10T14:51:46.894Z,98636.13
2023-05-10T14:55:10.744Z,98626.06
2023-05-10T14:58:14.229Z,98621.72
2023-05-10T15:01:20.085Z,98609.13
2023-05-10T15:04:25.067Z,98612.38
2023-05-10T15:07:32.454Z,98620.00
2023-05-10T15:10:36.035Z,98611.94
2023-05-10T15:13:39.693Z,98620.06
2023-05-10T15:16:44.516Z,98616.78
2023-05-10T15:19:48.150Z,98615.75
2023-05-10T15:22:51.752Z,98611.34
2023-05-10T15:25:56.800Z,98616.75
2023-05-10T15:29:00.348Z,98613.56
2023-05-10T15:32:06.032Z,98612.91
2023-05-10T15:35:11.513Z,98616.22
2023-05-10T15:38:15.216Z,98612.72
2023-05-10T15:41:18.702Z,98610.16
2023-05-10T15:44:22.911Z,98608.72
2023-05-10T15:47:28.744Z,98608.47
2023-05-10T15:50:32.519Z,98605.91
2023-05-10T15:53:36.094Z,98608.34
2023-05-10T15:56:39.974Z,98608.56
2023-05-10T15:59:43.854Z,98597.78
2023-05-10T16:02:49.165Z,98602.63
2023-05-10T16:05:52.682Z,98596.59
2023-05-10T16:08:56.509Z,98595.38
2023-05-10T16:11:59.937Z,98599.78
2023-05-10T16:15:03.980Z,98604.81
2023-05-10T16:18:09.069Z,98604.44
2023-05-10T16:21:12.890Z,98606.34
2023-05-10T16:24:16.673Z,98602.31
2023-05-10T16:27:20.314Z,98608.72
2023-05-10T16:30:24.437Z,98601.28
2023-05-10T16:33:29.477Z,98602.72
2023-05-10T16:36:33.879Z,98603.31
2023-05-10T16:39:37.651Z,98594.78
2023-05-10T16:42:40.994Z,98602.81
2023-05-10T16:45:44.781Z,98603.03
2023-05-10T16:48:49.625Z,98606.78
2023-05-10T16:51:53.406Z,98603.63
2023-05-10T16:54:57.382Z,98612.56
2023-05-10T16:58:02.911Z,98612.25
2023-05-10T17:01:07.250Z,98606.41
2023-05-10T17:04:12.646Z,98610.31
2023-05-10T17:07:19.016Z,98614.47
2023-05-10T17:10:22.980Z,98621.28
2023-05-10T17:13:26.939Z,98622.81
2023-05-10T17:16:31.538Z,98622.78
2023-05-10T17:19:36.952Z,98622.41
2023-05-10T17:22:41.189Z,98627.03
2023-05-10T17:25:45.100Z,98634.97
2023-05-10T17:28:48.853Z,98628.84
2023-05-10T17:31:52.709Z,98628.25
2023-05-10T17:34:58.200Z,98631.44
2023-05-10T17:38:01.927Z,98636.22
2023-05-10T17:41:05.676Z,98642.34
2023-05-10T17:44:09.453Z,98641.06
2023-05-10T17:47:13.217Z,98642.41
2023-05-10T17:50:18.530Z,98638.66
2023-05-10T17:53:22.378Z,98639.97
2023-05-10T17:56:27.156Z,98651.19
2023-05-10T17:59:31.039Z,98656.97
2023-05-10T18:02:35.889Z,98657.22
2023-05-10T18:05:41.206Z,98666.38
2023-05-10T18:08:44.672Z,98665.19
2023-05-10T18:11:48.584Z,98663.44
2023-05-10T18:14:52.158Z,98672.03
2023-05-10T18:17:56.855Z,98676.75
2023-05-10T18:21:01.838Z,98677.91
2023-05-10T18:24:06.494Z,98685.31
2023-05-10T18:27:10.533Z,98692.47
2023-05-10T18:30:15.755Z,98693.69
2023-05-10T18:33:19.504Z,98690.19
2023-05-10T18:36:24.824Z,98697.34
2023-05-10T18:39:28.436Z,98701.75
2023-05-10T18:42:32.458Z,98701.56
2023-05-10T18:45:36.182Z,98704.66
2023-05-10T18:48:40.807Z,98710.44
2023-05-10T18:51:45.806Z,98714.88
2023-05-10T18:54:51.324Z,98716.94
2023-05-10T18:57:54.836Z,98724.84
2023-05-10T19:00:59.270Z,98728.44
2023-05-10T19:04:03.057Z,98730.75
2023-05-10T19:07:08.233Z,98731.88
2023-05-10T19:10:13.785Z,98738.03
2023-05-10T19:13:17.628Z,98739.22
2023-05-10T19:16:23.301Z,98732.09
2023-05-10T19:19:27.500Z,98739.22
2023-05-10T19:22:47.127Z,98741.47
2023-05-10T19:25:53.223Z,98736.69
2023-05-10T19:28:57.523Z,98734.38
2023-05-10T19:32:01.390Z,98738.50
2023-05-10T19:35:05.727Z,98737.13
2023-05-10T19:38:10.887Z,98739.72
2023-05-10T19:41:14.557Z,98743.94
2023-05-10T19:44:18.272Z,98739.50
2023-05-10T19:47:21.887Z,98746.22
2023-05-10T19:50:25.535Z,98742.56
2023-05-10T19:53:31.580Z,98742.09
2023-05-10T19:56:35.515Z,98744.34
2023-05-10T19:59:38.904Z,98745.75
2023-05-10T20:02:42.612Z,98752.94
2023-05-10T20:05:46.132Z,98758.00
2023-05-10T20:08:51.176Z,98751.16
2023-05-10T20:11:54.642Z,98749.66
2023-05-10T20:14:58.484Z,98760.22
2023-05-10T20:18:03.605Z,98752.91
2023-05-10T20:21:07.511Z,98751.38
2023-05-10T20:24:12.400Z,98751.47
2023-05-10T20:27:16.230Z,98751.84
2023-05-10T20:30:20.363Z,98753.56
2023-05-10T20:33:24.640Z,98751.22
2023-05-10T20:36:28.783Z,98749.69
2023-05-10T20:39:33.826Z,98754.56
2023-05-10T20:42:37.802Z,98750.94
2023-05-10T20:45:41.454Z,98754.31
2023-05-10T20:48:44.986Z,98751.47
2023-05-10T20:51:48.631Z,98760.72
2023-05-10T20:54:53.682Z,98756.19
2023-05-10T20:57:57.323Z,98752.16
2023-05-10T21:01:02.532Z,98756.47
2023-05-10T21:04:06.568Z,98755.34
2023-05-10T21:07:09.973Z,98752.50
2023-05-10T21:10:15.432Z,98749.41
2023-05-10T21:13:18.943Z,98755.97
2023-05-10T21:16:22.718Z,98750.41
2023-05-10T21:19:26.366Z,98757.31
2023-05-10T21:22:30.050Z,98757.38
2023-05-10T21:25:35.054Z,98747.72
2023-05-10T21:28:40.163Z,98751.69
2023-05-10T21:31:43.895Z,98749.03
2023-05-10T21:34:47.578Z,98736.91
2023-05-10T21:37:51.071Z,98745.88
2023-05-10T21:40:56.251Z,98748.56
2023-05-10T21:43:59.925Z,98751.94
2023-05-10T21:47:03.899Z,98752.81
2023-05-10T21:50:10.006Z,98752.91
2023-05-10T21:53:13.642Z,98755.44
2023-05-10T21:56:18.542Z,98758.34
2023-05-10T21:59:22.483Z,98754.22
2023-05-10T22:02:26.163Z,98756.53
2023-05-10T22:05:30.067Z,98755.94
2023-05-10T22:08:33.596Z,98759.06
2023-05-10T22:11:38.678Z,98749.53
2023-05-10T22:14:42.243Z,98759.72
2023-05-10T22:17:45.986Z,98761.22
2023-05-10T22:20:49.456Z,98755.03
2023-05-10T22:23:53.135Z,98756.16
2023-05-10T22:26:58.171Z,98764.84
2023-05-10T22:30:01.906Z,98759.06
2023-05-10T22:33:05.685Z,98761.59
2023-05-10T22:36:09.830Z,98766.59
2023-05-10T22:39:13.180Z,98755.41
2023-05-10T22:42:18.349Z,98760.22
2023-05-10T22:45:21.892Z,98759.38
2023-05-10T22:48:25.557Z,98763.97
2023-05-10T22:51:29.344Z,98764.63
2023-05-10T22:54:34.913Z,98772.75
2023-05-10T22:57:41.244Z,98777.72
2023-05-10T23:00:45.036Z,98781.69
2023-05-10T23:03:48.818Z,98779.66
2023-05-10T23:06:53.590Z,98783.59
2023-05-10T23:09:57.161Z,98782.34
2023-05-10T23:13:02.241Z,98772.66
2023-05-10T23:16:09.325Z,98781.78
2023-05-10T23:19:13.177Z,98777.03
2023-05-10T23:22:16.588Z,98778.94
2023-05-10T23:25:20.462Z,98782.25
2023-05-10T23:28:25.334Z,98778.34
2023-05-10T23:31:29.404Z,98773.81
2023-05-10T23:34:33.068Z,98767.00
2023-05-10T23:37:37.224Z,98778.16
2023-05-10T23:40:40.775Z,98781.31
2023-05-10T23:43:46.204Z,98774.06
2023-05-10T23:46:49.742Z,98780.28
2023-05-10T23:49:53.714Z,98782.16
2023-05-10T23:52:57.278Z,98773.50
2023-05-10T23:56:00.926Z,98775.97
2023-05-10T23:59:06.033Z,98774.75
